Time;durP1;ratioP1;P1;durP2;ratioP2;P2;SDS_P1;SDS_P2;PMS_P1;PMS_P2;Temp;Humidity;BMP_temperature;BMP_pressure;BME280_temperature;BME280_humidity;BME280_pressure;Samples;Min_cycle;Max_cycle;Signal;HPM_P1;HPM_P2
2022/03/16 00:01:40;;;;;;;;;4.80;3.40;;;;;3.84;74.33;100751.81;5096862;28;8865;-64
2022/03/16 00:04:08;;;;;;;;;6.80;6.80;;;;;3.77;74.15;100755.59;5096857;28;8875;-64
2022/03/16 00:06:36;;;;;;;;;6.20;5.60;;;;;3.70;74.17;100759.38;5097199;28;8936;-64
2022/03/16 00:09:04;;;;;;;;;4.00;3.60;;;;;3.62;74.08;100750.09;5097240;28;8852;-64
2022/03/16 00:11:32;;;;;;;;;1.40;1.00;;;;;3.53;73.75;100758.31;5096506;28;9503;-64
2022/03/16 00:13:59;;;;;;;;;3.00;3.00;;;;;3.48;74.46;100757.66;5096121;28;8919;-64
2022/03/16 00:16:27;;;;;;;;;7.40;6.80;;;;;3.43;74.81;100770.97;5096168;28;8930;-64
2022/03/16 00:18:55;;;;;;;;;5.80;5.60;;;;;3.41;74.89;100767.53;5094899;28;8837;-64
2022/03/16 00:21:23;;;;;;;;;6.00;4.00;;;;;3.41;74.75;100762.25;5096620;28;8826;-64
2022/03/16 00:23:50;;;;;;;;;3.80;3.00;;;;;3.39;74.15;100772.00;5096492;28;8875;-64
2022/03/16 00:26:18;;;;;;;;;10.60;9.00;;;;;3.37;74.44;100770.34;5096533;28;8868;-64
2022/03/16 00:28:46;;;;;;;;;10.20;9.80;;;;;3.35;75.16;100773.03;5096650;28;8830;-63
2022/03/16 00:31:13;;;;;;;;;7.80;5.00;;;;;3.34;74.84;100763.41;5096083;28;8822;-64
2022/03/16 00:33:41;;;;;;;;;8.60;7.60;;;;;3.31;74.34;100778.44;5096480;28;8842;-63
2022/03/16 00:36:09;;;;;;;;;10.00;10.00;;;;;3.32;74.22;100772.28;5096277;28;8857;-63
2022/03/16 00:38:37;;;;;;;;;7.20;6.00;;;;;3.31;74.63;100776.69;5096873;28;8846;-64
2022/03/16 00:41:04;;;;;;;;;4.80;4.00;;;;;3.31;74.82;100781.94;5096630;28;8838;-64
2022/03/16 00:43:32;;;;;;;;;9.20;9.20;;;;;3.31;74.67;100775.81;5096290;28;8841;-64
2022/03/16 00:46:00;;;;;;;;;8.20;8.20;;;;;3.29;75.64;100778.53;5096949;28;8838;-63
2022/03/16 00:48:28;;;;;;;;;9.60;8.20;;;;;3.27;75.21;100775.06;5096231;28;8854;-63
2022/03/16 00:50:56;;;;;;;;;10.00;9.40;;;;;3.27;75.41;100779.50;5096393;28;9631;-64
2022/03/16 00:53:24;;;;;;;;;9.40;8.20;;;;;3.26;75.30;100783.88;5096426;28;8848;-64
2022/03/16 00:55:51;;;;;;;;;5.80;5.20;;;;;3.26;74.91;100777.78;5096177;28;8973;-64
2022/03/16 00:58:19;;;;;;;;;3.00;3.00;;;;;3.26;74.48;100781.25;5096083;28;8873;-63
2022/03/16 01:00:47;;;;;;;;;6.40;6.20;;;;;3.28;74.40;100779.44;5095878;28;8833;-64
2022/03/16 01:03:15;;;;;;;;;7.00;7.00;;;;;3.34;74.88;100775.72;5096160;28;8822;-64
2022/03/16 01:05:43;;;;;;;;;7.80;6.80;;;;;3.36;74.62;100774.75;5095971;28;8826;-64
2022/03/16 01:08:10;;;;;;;;;8.80;7.80;;;;;3.36;74.99;100777.38;5095813;28;8830;-64
2022/03/16 01:10:38;;;;;;;;;7.40;7.40;;;;;3.31;74.26;100781.94;5096037;28;8846;-64
2022/03/16 01:13:06;;;;;;;;;6.20;5.80;;;;;3.25;74.83;100782.16;5095756;28;8956;-64
2022/03/16 01:15:33;;;;;;;;;3.80;3.80;;;;;3.18;74.91;100780.69;5095805;28;8830;-64
2022/03/16 01:18:01;;;;;;;;;9.40;9.40;;;;;3.12;74.94;100777.41;5095487;28;8850;-64
2022/03/16 01:20:30;;;;;;;;;5.60;4.00;;;;;3.06;75.17;100782.88;5095891;28;9004;-64
2022/03/16 01:22:57;;;;;;;;;6.00;6.00;;;;;2.99;74.98;100784.91;5095097;28;8968;-64
2022/03/16 01:25:25;;;;;;;;;7.00;7.00;;;;;2.94;75.20;100786.81;5095853;28;8872;-63
2022/03/16 01:27:52;;;;;;;;;7.00;6.00;;;;;2.90;75.36;100781.72;5095012;28;8875;-64
2022/03/16 01:30:20;;;;;;;;;6.00;3.40;;;;;2.85;75.59;100776.63;5095400;28;8978;-64
2022/03/16 01:32:48;;;;;;;;;3.00;2.20;;;;;2.84;75.60;100781.94;5095399;28;8968;-64
2022/03/16 01:35:16;;;;;;;;;4.80;4.80;;;;;2.81;75.44;100784.69;5094801;28;8826;-66
2022/03/16 01:37:45;;;;;;;;;7.00;4.40;;;;;2.75;75.07;100777.88;5094608;28;9554;-63
2022/03/16 01:40:13;;;;;;;;;3.60;3.60;;;;;2.70;75.13;100782.41;5095333;28;8846;-64
2022/03/16 01:42:40;;;;;;;;;7.00;6.80;;;;;2.66;75.60;100778.16;5095205;28;8849;-64
2022/03/16 01:45:08;;;;;;;;;6.00;4.00;;;;;2.64;75.28;100781.78;5094981;28;8838;-63
2022/03/16 01:47:36;;;;;;;;;4.80;3.80;;;;;2.60;75.44;100774.91;5096094;28;8834;-64
2022/03/16 01:50:03;;;;;;;;;6.40;4.80;;;;;2.57;75.64;100788.16;5095426;28;8834;-63
2022/03/16 01:52:32;;;;;;;;;4.80;4.00;;;;;2.53;75.41;100778.66;5095060;28;9567;-64
2022/03/16 01:55:02;;;;;;;;;8.00;5.20;;;;;2.52;75.76;100783.06;5094975;28;8870;-63
2022/03/16 01:57:30;;;;;;;;;3.20;3.20;;;;;2.52;75.79;100780.44;5094514;28;9495;-64
2022/03/16 01:59:58;;;;;;;;;5.60;5.60;;;;;2.52;75.48;100783.06;5094969;28;8818;-64
2022/03/16 02:02:26;;;;;;;;;3.00;3.00;;;;;2.50;74.95;100779.59;5095186;28;8846;-64
2022/03/16 02:04:54;;;;;;;;;4.60;4.60;;;;;2.49;75.15;100777.88;5094603;28;8830;-64
2022/03/16 02:07:21;;;;;;;;;3.80;3.80;;;;;2.49;75.09;100777.88;5094795;28;9521;-65
2022/03/16 02:09:49;;;;;;;;;5.60;4.40;;;;;2.50;75.30;100784.00;5094950;28;8868;-64
2022/03/16 02:12:17;;;;;;;;;4.20;3.40;;;;;2.49;74.62;100783.13;5094800;28;8830;-64
2022/03/16 02:14:45;;;;;;;;;3.00;3.00;;;;;2.48;75.25;100789.31;5094576;28;8952;-64
2022/03/16 02:17:12;;;;;;;;;8.00;8.00;;;;;2.46;75.20;100777.13;5094732;28;8841;-63
2022/03/16 02:19:40;;;;;;;;;6.00;6.00;;;;;2.44;74.80;100777.16;5094337;28;8850;-63
2022/03/16 02:22:08;;;;;;;;;3.00;3.00;;;;;2.47;74.79;100781.47;5094689;28;8854;-63
2022/03/16 02:24:36;;;;;;;;;3.00;2.60;;;;;2.44;75.03;100782.44;5094898;28;8826;-64
2022/03/16 02:27:03;;;;;;;;;5.60;5.60;;;;;2.42;75.44;100780.78;5095028;28;8864;-64
2022/03/16 02:29:34;;;;;;;;;7.80;7.80;;;;;2.37;74.93;100767.81;5094310;28;8863;-63
2022/03/16 02:32:02;;;;;;;;;3.80;2.60;;;;;2.36;75.11;100779.19;5094650;28;8854;-64
2022/03/16 02:34:30;;;;;;;;;6.00;4.00;;;;;2.37;75.31;100783.56;5094661;28;8849;-64
2022/03/16 02:36:58;;;;;;;;;4.40;3.60;;;;;2.38;75.70;100787.03;5094072;28;9724;-63
2022/03/16 02:39:26;;;;;;;;;6.00;4.00;;;;;2.36;75.29;100789.72;5094431;28;9479;-63
2022/03/16 02:41:53;;;;;;;;;6.00;5.20;;;;;2.35;75.13;100795.88;5094253;28;8842;-64
2022/03/16 02:44:21;;;;;;;;;1.80;1.80;;;;;2.34;75.01;100794.16;5094273;28;8923;-63
2022/03/16 02:46:49;;;;;;;;;2.60;2.60;;;;;2.33;75.20;100791.56;5094361;28;8821;-63
2022/03/16 02:49:17;;;;;;;;;4.00;4.00;;;;;2.31;75.05;100793.41;5094437;28;8849;-64
2022/03/16 02:51:45;;;;;;;;;2.60;1.00;;;;;2.27;75.40;100790.00;5094238;28;9537;-64
2022/03/16 02:54:12;;;;;;;;;6.80;6.20;;;;;2.27;75.50;100790.00;5094641;28;8873;-64
2022/03/16 02:56:40;;;;;;;;;6.60;6.60;;;;;2.26;75.51;100792.72;5093644;28;9547;-64
2022/03/16 02:59:07;;;;;;;;;5.80;5.80;;;;;2.24;74.73;100795.38;5094280;28;8830;-63
2022/03/16 03:01:35;;;;;;;;;5.20;4.80;;;;;2.23;74.83;100791.03;5094528;28;8846;-64
2022/03/16 03:04:03;;;;;;;;;7.00;4.00;;;;;2.21;74.67;100790.19;5099922;28;8858;-64
2022/03/16 03:06:31;;;;;;;;;4.40;3.60;;;;;2.17;75.51;100801.72;5109563;28;8854;-64
2022/03/16 03:08:59;;;;;;;;;2.80;1.80;;;;;2.12;74.87;100803.63;5096505;28;8883;-64
2022/03/16 03:11:27;;;;;;;;;2.20;2.20;;;;;2.09;75.26;100809.00;5095026;28;8826;-64
2022/03/16 03:13:55;;;;;;;;;2.40;2.20;;;;;2.06;74.71;100809.06;5095021;28;8829;-64
2022/03/16 03:16:23;;;;;;;;;9.60;9.00;;;;;2.03;75.35;100803.94;5094863;28;8838;-64
2022/03/16 03:18:51;;;;;;;;;7.40;7.40;;;;;2.05;75.67;100804.75;5099748;28;8886;-64
2022/03/16 03:21:19;;;;;;;;;6.00;5.60;;;;;2.07;75.27;100789.81;5115117;28;8824;-63
2022/03/16 03:23:46;;;;;;;;;6.20;6.20;;;;;2.16;75.34;100784.25;5114610;28;9477;-64
2022/03/16 03:26:14;;;;;;;;;6.60;6.60;;;;;2.21;74.96;100777.06;5115527;28;8982;-63
2022/03/16 03:28:42;;;;;;;;;4.00;4.00;;;;;2.22;74.55;100784.06;5111147;28;8864;-63
2022/03/16 03:31:09;;;;;;;;;4.20;4.00;;;;;2.19;75.15;100778.06;5093198;28;8879;-64
2022/03/16 03:33:38;;;;;;;;;5.20;3.40;;;;;2.14;74.87;100774.72;5092669;28;8864;-64
2022/03/16 03:36:06;;;;;;;;;4.00;4.00;;;;;2.11;75.14;100780.91;5094040;28;8858;-64
2022/03/16 03:38:34;;;;;;;;;4.00;4.00;;;;;2.04;75.14;100784.63;5095886;28;8845;-63
2022/03/16 03:41:01;;;;;;;;;2.20;2.20;;;;;1.92;75.23;100795.53;5115358;28;8984;-64
2022/03/16 03:43:31;;;;;;;;;4.00;3.20;;;;;1.83;75.45;100794.97;5114742;28;8836;-64
2022/03/16 03:45:58;;;;;;;;;6.00;6.00;;;;;1.76;76.25;100793.44;5114346;28;8857;-64
2022/03/16 03:48:26;;;;;;;;;6.40;4.60;;;;;1.72;75.69;100794.41;5114097;28;8836;-64
2022/03/16 03:50:54;;;;;;;;;6.20;6.00;;;;;1.67;75.97;100791.94;5094389;28;8837;-64
2022/03/16 03:53:22;;;;;;;;;3.00;3.00;;;;;1.69;76.21;100792.78;5094544;28;9593;-64
2022/03/16 03:55:50;;;;;;;;;4.00;3.00;;;;;1.74;76.11;100780.34;5093610;28;8981;-64
2022/03/16 03:58:17;;;;;;;;;6.80;4.80;;;;;1.80;75.87;100777.53;5093934;28;8883;-64
2022/03/16 04:00:45;;;;;;;;;3.00;3.00;;;;;1.81;75.25;100783.66;5113571;28;8824;-63
2022/03/16 04:03:14;;;;;;;;;4.80;4.00;;;;;1.80;75.36;100779.28;5118784;28;8828;-64
2022/03/16 04:05:42;;;;;;;;;2.60;2.60;;;;;1.78;75.43;100771.47;5118620;28;8913;-64
2022/03/16 04:08:10;;;;;;;;;5.40;5.40;;;;;1.77;75.67;100779.41;5118499;28;8855;-64
2022/03/16 04:10:39;;;;;;;;;4.00;3.40;;;;;1.75;75.46;100781.22;5099951;28;8814;-63
2022/03/16 04:13:07;;;;;;;;;7.60;5.60;;;;;1.72;75.36;100778.66;5098023;28;8834;-64
2022/03/16 04:15:35;;;;;;;;;6.00;4.80;;;;;1.67;75.55;100773.56;5096682;28;8821;-64
2022/03/16 04:18:02;;;;;;;;;4.00;3.60;;;;;1.64;75.71;100778.91;5098451;28;8850;-63
2022/03/16 04:20:31;;;;;;;;;7.00;4.00;;;;;1.62;75.76;100779.84;5114422;28;9565;-64
2022/03/16 04:22:58;;;;;;;;;6.00;6.00;;;;;1.61;75.76;100778.97;5118289;28;9523;-64
2022/03/16 04:25:26;;;;;;;;;1.60;1.60;;;;;1.60;75.66;100772.03;5118817;28;8862;-64
2022/03/16 04:27:53;;;;;;;;;5.60;5.60;;;;;1.59;75.56;100772.94;5118781;28;8820;-63
2022/03/16 04:30:21;;;;;;;;;1.40;1.40;;;;;1.60;75.60;100784.31;5101108;28;8953;-63
2022/03/16 04:32:51;;;;;;;;;6.60;4.40;;;;;1.60;75.27;100777.28;5097737;28;8837;-63
2022/03/16 04:35:19;;;;;;;;;3.20;1.40;;;;;1.62;75.31;100787.72;5097645;28;8837;-64
2022/03/16 04:37:47;;;;;;;;;6.20;5.00;;;;;1.63;75.61;100777.19;5097514;28;8881;-64
2022/03/16 04:40:15;;;;;;;;;4.40;4.00;;;;;1.64;75.67;100778.03;5112016;28;8909;-64
2022/03/16 04:42:43;;;;;;;;;5.20;4.00;;;;;1.67;75.34;100768.31;5117826;28;8839;-64
2022/03/16 04:45:11;;;;;;;;;6.60;5.80;;;;;1.76;75.24;100773.28;5117728;28;8828;-66
2022/03/16 04:47:39;;;;;;;;;7.40;7.40;;;;;1.79;74.94;100774.94;5118100;28;8893;-64
2022/03/16 04:50:06;;;;;;;;;2.20;2.20;;;;;1.74;75.09;100780.34;5103773;28;8964;-64
2022/03/16 04:52:35;;;;;;;;;6.80;6.00;;;;;1.68;75.36;100775.28;5097365;28;8842;-63
2022/03/16 04:55:03;;;;;;;;;4.40;4.40;;;;;1.62;75.55;100775.50;5096944;28;8830;-64
2022/03/16 04:57:30;;;;;;;;;6.00;4.40;;;;;1.59;75.58;100772.09;5096854;28;8841;-63
2022/03/16 04:59:58;;;;;;;;;5.20;4.00;;;;;1.58;75.48;100776.47;5108777;28;8835;-63
2022/03/16 05:02:27;;;;;;;;;4.80;4.00;;;;;1.56;75.39;100772.16;5116523;28;8828;-64
2022/03/16 05:04:55;;;;;;;;;7.40;4.80;;;;;1.54;76.07;100774.00;5117832;28;8924;-64
2022/03/16 05:07:23;;;;;;;;;3.00;1.80;;;;;1.50;75.56;100770.59;5117350;28;8839;-63
2022/03/16 05:09:50;;;;;;;;;5.60;5.60;;;;;1.49;75.56;100773.25;5105050;28;8810;-64
2022/03/16 05:12:21;;;;;;;;;3.20;2.60;;;;;1.48;75.81;100768.91;5095779;28;8865;-64
2022/03/16 05:14:49;;;;;;;;;5.20;5.20;;;;;1.45;75.35;100772.47;5096692;28;8972;-64
2022/03/16 05:17:17;;;;;;;;;6.60;3.20;;;;;1.43;75.94;100779.53;5096331;28;8852;-64
2022/03/16 05:19:48;;;;;;;;;2.60;1.40;;;;;1.42;75.79;100775.22;5106153;28;9788;-64
2022/03/16 05:22:16;;;;;;;;;3.60;2.60;;;;;1.41;75.27;100786.63;5116193;28;8848;-65
2022/03/16 05:24:44;;;;;;;;;3.40;3.40;;;;;1.42;75.40;100784.81;5116802;28;8820;-64
2022/03/16 05:27:11;;;;;;;;;4.00;4.00;;;;;1.44;75.04;100783.03;5116969;28;8848;-64
2022/03/16 05:29:39;;;;;;;;;4.00;4.00;;;;;1.46;75.17;100795.19;5107746;28;8826;-64
2022/03/16 05:32:07;;;;;;;;;9.80;6.00;;;;;1.51;75.52;100792.47;5096611;28;8911;-65
2022/03/16 05:34:36;;;;;;;;;6.80;5.00;;;;;1.55;75.17;100794.94;5096263;28;8826;-64
2022/03/16 05:37:03;;;;;;;;;7.00;6.60;;;;;1.60;75.10;100793.03;5095928;28;8976;-64
2022/03/16 05:39:31;;;;;;;;;5.20;5.20;;;;;1.62;75.24;100793.84;5103191;28;8832;-64
2022/03/16 05:42:00;;;;;;;;;6.00;5.60;;;;;1.65;74.75;100792.88;5116432;28;8862;-64
2022/03/16 05:44:28;;;;;;;;;4.80;3.00;;;;;1.66;75.02;100795.47;5116721;28;8843;-64
2022/03/16 05:46:57;;;;;;;;;3.60;3.60;;;;;1.68;74.99;100796.28;5115727;28;8836;-64
2022/03/16 05:49:25;;;;;;;;;3.00;3.00;;;;;1.69;75.00;100792.78;5109983;28;8818;-64
2022/03/16 05:51:58;;;;;;;;;6.20;5.60;;;;;1.71;74.94;100801.44;5116429;28;8900;-64
2022/03/16 05:54:26;;;;;;;;;5.20;4.00;;;;;1.68;74.80;100803.31;5116544;28;8949;-64
2022/03/16 05:56:54;;;;;;;;;4.40;4.40;;;;;1.66;75.40;100798.09;5116266;28;8983;-64
2022/03/16 05:59:22;;;;;;;;;3.60;3.60;;;;;1.69;75.15;100807.63;5114525;28;8994;-64
2022/03/16 06:01:51;;;;;;;;;4.40;4.40;;;;;1.69;74.77;100805.88;5093456;28;8964;-63
2022/03/16 06:04:19;;;;;;;;;3.40;2.60;;;;;1.71;75.11;100803.19;5113216;28;8831;-64
2022/03/16 06:06:47;;;;;;;;;4.80;3.60;;;;;1.74;75.38;100803.97;5114166;28;8812;-64
2022/03/16 06:09:15;;;;;;;;;6.00;6.00;;;;;1.77;74.68;100801.28;5114157;28;8853;-63
2022/03/16 06:11:42;;;;;;;;;3.80;3.80;;;;;1.79;74.41;100802.06;5113387;28;8856;-63
2022/03/16 06:14:10;;;;;;;;;0.40;0.40;;;;;1.78;74.59;100802.97;5113621;28;9500;-63
2022/03/16 06:16:38;;;;;;;;;3.00;2.20;;;;;1.75;74.68;100808.31;5112683;28;8916;-64
2022/03/16 06:19:06;;;;;;;;;4.00;3.00;;;;;1.76;74.63;100798.69;5113358;28;8874;-63
2022/03/16 06:21:34;;;;;;;;;3.60;3.00;;;;;1.76;74.53;100806.56;5113456;28;8842;-64
2022/03/16 06:24:02;;;;;;;;;3.40;3.40;;;;;1.77;74.87;100800.41;5112269;28;8823;-63
2022/03/16 06:26:29;;;;;;;;;4.00;3.40;;;;;1.79;74.76;100803.81;5113415;28;8854;-63
2022/03/16 06:28:57;;;;;;;;;3.00;3.00;;;;;1.83;75.07;100795.81;5112262;28;8944;-63
2022/03/16 06:31:25;;;;;;;;;3.00;3.00;;;;;1.87;74.48;100799.19;5112255;28;8887;-63
2022/03/16 06:33:53;;;;;;;;;4.00;4.00;;;;;1.93;74.38;100799.00;5110656;28;8863;-63
2022/03/16 06:36:20;;;;;;;;;5.20;5.20;;;;;2.02;74.37;100798.72;5110678;28;8843;-62
2022/03/16 06:38:48;;;;;;;;;6.20;6.20;;;;;2.13;74.73;100794.84;5110598;28;8970;-64
2022/03/16 06:41:20;;;;;;;;;3.80;3.00;;;;;2.21;73.96;100792.84;5110060;28;8828;-63
2022/03/16 06:43:48;;;;;;;;;11.40;10.40;;;;;2.29;73.74;100801.31;5110188;28;8839;-64
2022/03/16 06:46:15;;;;;;;;;10.00;9.60;;;;;2.36;73.89;100797.59;5109999;28;8836;-63
2022/03/16 06:48:44;;;;;;;;;11.60;11.00;;;;;2.46;73.61;100799.03;5109172;28;8840;-64
2022/03/16 06:51:11;;;;;;;;;9.00;9.00;;;;;2.53;73.46;100821.56;5110241;28;8836;-64
2022/03/16 06:53:39;;;;;;;;;6.80;6.80;;;;;2.56;73.42;100813.56;5109362;28;8853;-63
2022/03/16 06:56:06;;;;;;;;;9.80;9.00;;;;;2.57;73.57;100810.03;5109707;28;8888;-63
2022/03/16 06:58:34;;;;;;;;;11.60;10.40;;;;;2.59;73.61;100795.06;5112072;28;8843;-63
2022/03/16 07:01:02;;;;;;;;;10.20;9.80;;;;;2.68;73.24;100794.75;5111265;28;8848;-64
2022/03/16 07:03:30;;;;;;;;;12.40;11.00;;;;;2.77;73.18;100801.47;5111191;28;8850;-63
2022/03/16 07:05:58;;;;;;;;;15.40;12.40;;;;;2.86;73.22;100799.38;5111464;28;8855;-63
2022/03/16 07:08:26;;;;;;;;;10.80;9.80;;;;;2.92;73.02;100799.16;5111018;28;8844;-63
2022/03/16 07:10:54;;;;;;;;;11.60;11.60;;;;;3.02;72.62;100808.44;5110611;28;8840;-64
2022/03/16 07:13:22;;;;;;;;;8.60;7.00;;;;;3.07;72.21;100809.16;5110473;28;9170;-64
2022/03/16 07:15:50;;;;;;;;;6.80;6.00;;;;;3.15;72.62;100807.09;5110804;28;8844;-63
2022/03/16 07:18:19;;;;;;;;;7.00;7.00;;;;;3.23;72.91;100810.31;5111527;28;8912;-64
2022/03/16 07:20:48;;;;;;;;;7.80;7.00;;;;;3.31;72.13;100803.00;5111674;28;8862;-63
2022/03/16 07:23:17;;;;;;;;;8.60;8.60;;;;;3.43;71.98;100797.31;5111183;28;8915;-63
2022/03/16 07:25:44;;;;;;;;;7.00;6.00;;;;;3.57;71.94;100808.16;5111948;28;8852;-64
2022/03/16 07:28:12;;;;;;;;;7.60;6.40;;;;;3.72;71.65;100801.47;5110928;28;8848;-63
2022/03/16 07:30:40;;;;;;;;;4.00;4.00;;;;;3.87;71.83;100799.09;5111375;28;8935;-63
2022/03/16 07:33:08;;;;;;;;;9.60;9.60;;;;;4.00;71.16;100800.31;5110869;28;8994;-63
2022/03/16 07:35:35;;;;;;;;;7.00;6.20;;;;;4.12;70.86;100787.53;5110841;28;8835;-63
2022/03/16 07:38:03;;;;;;;;;4.80;4.80;;;;;4.32;71.03;100786.72;5114749;28;8848;-63
2022/03/16 07:40:31;;;;;;;;;7.00;6.00;;;;;4.52;70.51;100784.13;5115285;28;8987;-63
2022/03/16 07:42:59;;;;;;;;;9.40;9.00;;;;;4.71;70.33;100795.63;5115394;28;8835;-63
2022/03/16 07:45:27;;;;;;;;;12.00;9.60;;;;;4.94;70.40;100787.59;5114167;28;8887;-63
2022/03/16 07:47:56;;;;;;;;;9.20;7.40;;;;;5.19;69.81;100791.75;5114787;28;8851;-63
2022/03/16 07:50:24;;;;;;;;;6.20;4.40;;;;;5.45;69.70;100788.78;5113731;28;8874;-63
2022/03/16 07:52:52;;;;;;;;;11.40;7.00;;;;;5.72;68.98;100789.28;5114718;28;8970;-64
2022/03/16 07:55:19;;;;;;;;;9.00;9.00;;;;;5.99;68.88;100790.69;5113231;28;8951;-63
2022/03/16 07:57:47;;;;;;;;;12.40;10.00;;;;;6.26;68.19;100789.34;5113665;28;8838;-63
2022/03/16 08:00:15;;;;;;;;;11.60;10.00;;;;;6.50;68.11;100790.78;5114222;28;8839;-64
2022/03/16 08:02:44;;;;;;;;;8.60;6.60;;;;;6.69;67.87;100786.31;5112679;28;8839;-64
2022/03/16 08:05:12;;;;;;;;;9.80;9.00;;;;;6.83;67.39;100786.47;5113547;28;8828;-64
2022/03/16 08:07:40;;;;;;;;;8.40;8.40;;;;;6.89;67.45;100772.94;5112876;28;8918;-63
2022/03/16 08:10:08;;;;;;;;;13.00;12.00;;;;;6.93;67.68;100785.06;5114535;28;8980;-63
2022/03/16 08:12:35;;;;;;;;;11.40;10.20;;;;;6.95;67.46;100785.81;5114846;28;8969;-64
2022/03/16 08:15:06;;;;;;;;;11.20;10.40;;;;;6.99;67.69;100774.16;5115303;28;8824;-64
2022/03/16 08:17:33;;;;;;;;;5.60;5.60;;;;;7.11;67.18;100774.38;5114545;28;8866;-64
2022/03/16 08:20:01;;;;;;;;;9.00;7.40;;;;;7.36;66.71;100766.00;5113313;28;8839;-63
2022/03/16 08:22:30;;;;;;;;;12.60;12.60;;;;;7.62;66.95;100762.78;5113269;28;8843;-63
2022/03/16 08:24:57;;;;;;;;;11.00;9.60;;;;;7.83;66.48;100755.34;5112628;28;8842;-64
2022/03/16 08:27:25;;;;;;;;;12.00;9.00;;;;;7.99;66.07;100750.91;5113545;28;8847;-63
2022/03/16 08:29:54;;;;;;;;;9.40;9.00;;;;;8.14;65.79;100754.50;5112237;28;8882;-63
2022/03/16 08:32:21;;;;;;;;;8.20;7.40;;;;;8.33;65.93;100750.75;5111553;28;8953;-64
2022/03/16 08:34:50;;;;;;;;;1.00;1.00;;;;;8.55;65.14;100743.25;5112046;28;8966;-64
2022/03/16 08:37:18;;;;;;;;;14.60;11.60;;;;;8.76;65.10;100746.44;5112556;28;8836;-64
2022/03/16 08:39:46;;;;;;;;;10.80;9.00;;;;;8.97;65.04;100735.38;5113636;28;8888;-64
2022/03/16 08:42:14;;;;;;;;;9.40;9.40;;;;;9.17;64.12;100732.38;5112954;28;8836;-64
2022/03/16 08:44:42;;;;;;;;;15.60;12.60;;;;;9.36;64.21;100737.41;5111457;28;9517;-64
2022/03/16 08:47:10;;;;;;;;;9.75;9.25;;;;;9.68;64.10;100736.25;5112633;28;8847;-64
2022/03/16 08:49:38;;;;;;;;;10.80;10.40;;;;;10.09;63.29;100727.34;5113995;28;8870;-64
2022/03/16 08:52:06;;;;;;;;;14.40;11.40;;;;;10.61;62.36;100720.28;5112986;28;8878;-64
2022/03/16 08:54:34;;;;;;;;;12.00;10.00;;;;;11.14;62.12;100713.97;5113821;28;9553;-64
2022/03/16 08:57:02;;;;;;;;;8.50;8.00;;;;;11.62;61.15;100703.38;5113549;28;8836;-64
2022/03/16 08:59:30;;;;;;;;;12.00;9.50;;;;;11.95;60.62;100709.78;5112850;28;8828;-64
2022/03/16 09:01:58;;;;;;;;;8.50;7.00;;;;;12.13;60.64;100692.41;5112952;28;8847;-64
2022/03/16 09:04:26;;;;;;;;;7.00;7.00;;;;;12.28;60.49;100695.75;5111711;28;8882;-64
2022/03/16 09:06:54;;;;;;;;;12.50;11.00;;;;;12.48;60.94;100695.13;5112474;28;8847;-64
2022/03/16 09:09:23;;;;;;;;;13.25;11.50;;;;;12.61;60.70;100679.88;5112625;28;8839;-64
2022/03/16 09:11:51;;;;;;;;;10.50;7.50;;;;;12.68;60.49;100681.94;5112173;28;8854;-64
2022/03/16 09:14:18;;;;;;;;;11.00;11.00;;;;;12.80;59.94;100677.50;5111589;28;8923;-64
2022/03/16 09:16:47;;;;;;;;;9.25;9.00;;;;;12.97;60.18;100685.06;5111548;28;8824;-64
2022/03/16 09:19:20;;;;;;;;;7.00;7.00;;;;;13.20;59.59;100701.03;5113227;28;8970;-64
2022/03/16 09:21:48;;;;;;;;;6.25;4.50;;;;;13.31;58.79;100690.38;5113849;28;8982;-63
2022/03/16 09:24:16;;;;;;;;;9.25;9.00;;;;;13.26;59.07;100694.34;5113873;28;9660;-63
2022/03/16 09:26:44;;;;;;;;;10.00;9.50;;;;;13.19;59.05;100703.84;5113504;28;8840;-64
2022/03/16 09:29:12;;;;;;;;;7.50;6.25;;;;;13.17;59.08;100700.44;5113379;28;8832;-64
2022/03/16 09:31:40;;;;;;;;;12.25;11.00;;;;;13.14;58.86;100703.38;5113123;28;8828;-64
2022/03/16 09:34:09;;;;;;;;;10.00;9.50;;;;;13.12;58.90;100705.28;5113020;28;8859;-64
2022/03/16 09:36:37;;;;;;;;;9.00;8.25;;;;;13.14;58.26;100708.72;5113204;28;8823;-63
2022/03/16 09:39:05;;;;;;;;;7.00;5.25;;;;;13.22;58.85;100699.09;5113120;28;8839;-63
2022/03/16 09:41:33;;;;;;;;;10.75;10.75;;;;;13.33;58.72;100692.91;5113056;28;9208;-64
2022/03/16 09:44:04;;;;;;;;;9.25;9.00;;;;;13.45;58.33;100673.22;5106941;28;9137;-63
2022/03/16 09:46:32;;;;;;;;;9.00;7.00;;;;;13.54;58.24;100680.50;5109141;28;8839;-63
2022/03/16 09:48:59;;;;;;;;;11.00;8.50;;;;;13.66;57.72;100684.88;5112381;28;8914;-64
2022/03/16 09:51:29;;;;;;;;;7.50;7.00;;;;;13.80;57.17;100682.78;5112215;28;8824;-64
2022/03/16 09:53:57;;;;;;;;;7.50;6.50;;;;;13.91;57.72;100681.91;5112654;28;8835;-63
2022/03/16 09:56:25;;;;;;;;;14.00;12.00;;;;;13.89;57.19;100687.38;5112095;28;8844;-64
2022/03/16 09:58:53;;;;;;;;;9.25;9.00;;;;;13.88;57.07;100692.88;5112209;28;8843;-64
2022/03/16 10:01:21;;;;;;;;;8.00;7.00;;;;;13.85;57.28;100688.63;5112025;28;9001;-63
2022/03/16 10:03:49;;;;;;;;;10.75;8.50;;;;;13.90;56.79;100685.56;5112365;28;9517;-64
2022/03/16 10:06:18;;;;;;;;;9.50;9.00;;;;;13.95;57.16;100672.63;5110813;28;9615;-64
2022/03/16 10:13:13;;;;;;;;;9.00;7.50;;;;;13.99;56.72;100685.69;5111150;28;8838;-64
2022/03/16 10:14:20;;;;;;;;;10.50;9.25;;;;;14.05;55.90;100687.84;5111748;28;8851;-64
2022/03/16 10:19:30;;;;;;;;;11.00;10.00;;;;;14.01;55.99;100696.25;5112200;28;8912;-64
2022/03/16 10:21:58;;;;;;;;;9.00;9.00;;;;;14.02;55.95;100703.31;5112756;28;8832;-64
2022/03/16 10:24:29;;;;;;;;;9.50;9.00;;;;;14.33;55.04;100697.19;5112609;28;8843;-63
2022/03/16 10:26:58;;;;;;;;;12.50;12.00;;;;;15.05;53.70;100696.31;5113081;28;8848;-63
2022/03/16 10:29:26;;;;;;;;;10.75;9.50;;;;;15.89;52.83;100691.50;5112376;28;8839;-63
2022/03/16 10:31:55;;;;;;;;;12.00;12.00;;;;;16.89;50.91;100687.50;5112288;28;8920;-64
2022/03/16 10:34:22;;;;;;;;;12.25;12.25;;;;;17.64;49.18;100683.78;5110894;28;8925;-63
2022/03/16 10:36:50;;;;;;;;;6.50;6.00;;;;;18.03;47.82;100693.34;5111331;28;8932;-63
2022/03/16 10:39:19;;;;;;;;;12.75;11.50;;;;;18.31;47.89;100681.56;5111936;28;8966;-63
2022/03/16 10:47:17;;;;;;;;;11.20;9.60;;;;;19.92;45.58;100678.16;5112127;28;8909;-64
2022/03/16 10:49:45;;;;;;;;;13.60;11.40;;;;;20.62;44.56;100670.41;5110932;28;8835;-63
2022/03/16 10:52:15;;;;;;;;;15.80;13.00;;;;;21.56;43.65;100672.34;5112111;28;8877;-64
2022/03/16 10:54:43;;;;;;;;;12.20;12.00;;;;;22.19;42.27;100664.97;5111583;28;8865;-64
2022/03/16 10:57:14;;;;;;;;;14.80;14.00;;;;;22.74;41.54;100658.34;5112226;28;8815;-63
2022/03/16 10:59:42;;;;;;;;;13.80;13.00;;;;;23.01;40.98;100659.63;5112114;28;8824;-64
2022/03/16 11:02:12;;;;;;;;;14.20;11.00;;;;;23.21;41.04;100660.84;5111618;28;8989;-64
2022/03/16 11:04:40;;;;;;;;;14.60;13.00;;;;;23.16;40.51;100652.38;5111987;28;8852;-63
2022/03/16 11:07:08;;;;;;;;;12.20;9.40;;;;;23.29;40.24;100655.31;5113181;28;9539;-64
2022/03/16 11:09:36;;;;;;;;;15.60;13.60;;;;;23.51;39.36;100657.13;5113870;28;8861;-64
2022/03/16 11:14:56;;;;;;;;;10.40;10.40;;;;;23.39;38.33;100653.16;5112290;28;8900;-63
2022/03/16 11:17:27;;;;;;;;;9.40;7.80;;;;;23.36;38.74;100657.09;5108110;28;8848;-63
2022/03/16 11:19:56;;;;;;;;;12.00;10.80;;;;;23.23;38.82;100661.50;5111401;28;8875;-64
2022/03/16 11:22:24;;;;;;;;;10.80;10.00;;;;;23.21;37.65;100660.84;5109847;28;9000;-63
2022/03/16 11:24:52;;;;;;;;;8.60;8.00;;;;;23.01;38.10;100656.91;5110293;28;8850;-64
2022/03/16 11:27:20;;;;;;;;;15.00;12.00;;;;;23.05;38.03;100655.50;5112178;28;8859;-64
2022/03/16 11:29:48;;;;;;;;;15.60;14.20;;;;;23.05;37.92;100653.63;5110408;28;8920;-64
2022/03/16 11:32:15;;;;;;;;;10.80;9.40;;;;;22.97;37.74;100659.16;5111013;28;8842;-64
2022/03/16 11:34:43;;;;;;;;;3.60;2.00;;;;;22.85;37.82;100654.34;5107407;28;8836;-64
2022/03/16 11:37:12;;;;;;;;;10.00;8.00;;;;;22.81;37.84;100653.00;5109080;28;8819;-63
2022/03/16 11:39:40;;;;;;;;;10.60;10.20;;;;;22.96;37.63;100645.75;5108768;28;8920;-63
2022/03/16 11:42:07;;;;;;;;;8.80;8.80;;;;;23.26;37.81;100640.22;5109035;28;8866;-64
2022/03/16 11:44:38;;;;;;;;;14.80;12.60;;;;;23.72;36.35;100644.44;5108384;28;9240;-64
2022/03/16 11:47:05;;;;;;;;;12.00;11.60;;;;;23.99;35.91;100642.94;5105990;28;8832;-63
2022/03/16 11:49:33;;;;;;;;;11.80;10.60;;;;;24.25;36.04;100632.34;5108169;28;8958;-64
2022/03/16 11:52:01;;;;;;;;;12.20;11.80;;;;;24.74;35.59;100627.84;5109789;28;8869;-64
2022/03/16 11:54:29;;;;;;;;;12.40;9.80;;;;;25.22;35.42;100635.16;5109177;28;8981;-64